»·PEaware :: N89455 KWHP-KSBD

N89455 :: KWHP-KSBD

FLIGHT INFORMATION

Flight Status: Arrived
Operator: Privately registered:
United States
More flights under this callsign
Pilot: Dretana A. (25430)
Aircraft: CESSNA 172 SKYHAWK
(C172)
More flights by this aircraft type
Origin: KWHP Whiteman
United States
Destination: KSBD San Bernardino Intl
United States
More flights between these airports :: More routes between these airports
Route: +WHITE1 VNY V186 PDZ
File this flight plan on PilotEdge
Remarks:
Altitude:
(Current/Filed)
7,000ft
Speed:
(Current/Filed)
120kts
Departed: 06-Oct-20 02:13 PM
Arrived: 06-Oct-20 03:03 PM
Distance/Time
Traveled:
59nm/0:50
Distance/Time
To Go:
Arrived

Flight Plot

Page will automatically refresh every two minutes.

Flight plan parsing failed; only flown route is shown


Map Options




Map Legend


Flown Route
Filed Route
Departure Airport
Arrival Airport
Navaid (VOR, NDB)
Fix

Horizontal Profiles

Position Reports

Time Latitude Longitude Heading Altitude Ground
Speed
06-Oct-20 13:53 34.262666 -118.416114 105 1001ft 0kts
06-Oct-20 13:54 34.262666 -118.416114 105 1001ft 0kts
06-Oct-20 13:55 34.262667 -118.416114 105 1001ft 0kts
06-Oct-20 13:56 34.262666 -118.416114 105 1001ft 0kts
06-Oct-20 13:57 34.262667 -118.416114 105 1001ft 0kts
06-Oct-20 13:58 34.262667 -118.416114 105 1001ft 0kts
06-Oct-20 13:59 34.262667 -118.416114 105 1001ft 0kts
06-Oct-20 14:00 34.262667 -118.416114 105 1001ft 0kts
06-Oct-20 14:01 34.262667 -118.416114 105 1001ft 0kts
06-Oct-20 14:02 34.262667 -118.416114 105 1001ft 0kts
06-Oct-20 14:03 34.262667 -118.416114 105 1001ft 0kts
06-Oct-20 14:04 34.262667 -118.416114 105 1001ft 0kts
06-Oct-20 14:05 34.262667 -118.416114 105 1001ft 0kts
06-Oct-20 14:06 34.262667 -118.416114 105 1001ft 0kts
06-Oct-20 14:07 34.262667 -118.416114 105 1001ft 0kts
06-Oct-20 14:08 34.262667 -118.416114 105 1001ft 0kts
06-Oct-20 14:09 34.262578 -118.415989 142 1000ft 10kts
06-Oct-20 14:11 34.257030 -118.410385 139 972ft 28kts
06-Oct-20 14:12 34.255564 -118.408907 166 962ft 0kts
06-Oct-20 14:13 34.260424 -118.414754 318 1025ft 75kts
06-Oct-20 14:14 34.268437 -118.437540 275 1689ft 85kts
06-Oct-20 14:15 34.269874 -118.466523 274 2398ft 85kts
06-Oct-20 14:16 34.270947 -118.495616 273 3049ft 88kts
06-Oct-20 14:17 34.281351 -118.517708 337 3740ft 80kts
06-Oct-20 14:18 34.302072 -118.527637 343 4367ft 78kts
06-Oct-20 14:19 34.313113 -118.543827 225 4894ft 82kts
06-Oct-20 14:20 34.289856 -118.535456 152 5124ft 110kts
06-Oct-20 14:21 34.260632 -118.517118 152 5005ft 124kts
06-Oct-20 14:22 34.231984 -118.496602 149 4963ft 115kts
06-Oct-20 14:23 34.209578 -118.472174 90 4969ft 116kts
06-Oct-20 14:24 34.206152 -118.433923 111 4964ft 116kts
06-Oct-20 14:25 34.195207 -118.397901 110 4963ft 116kts
06-Oct-20 14:26 34.184062 -118.361029 110 4960ft 116kts
06-Oct-20 14:26 34.175014 -118.331054 110 4960ft 116kts
06-Oct-20 14:28 34.162297 -118.288933 110 4956ft 116kts
06-Oct-20 14:29 34.151528 -118.253254 110 4956ft 116kts
06-Oct-20 14:29 34.142812 -118.224415 110 4955ft 115kts
06-Oct-20 14:31 34.131125 -118.185682 110 4954ft 116kts
06-Oct-20 14:31 34.123431 -118.160299 110 4951ft 115kts
06-Oct-20 14:32 34.114992 -118.132314 110 4952ft 115kts
06-Oct-20 14:33 34.105013 -118.099318 110 4951ft 116kts
06-Oct-20 14:34 34.094153 -118.063403 110 4947ft 115kts
06-Oct-20 14:35 34.083780 -118.029113 110 4948ft 115kts
06-Oct-20 14:36 34.073061 -117.993403 105 4945ft 115kts
06-Oct-20 14:37 34.073613 -117.954741 88 4946ft 116kts
06-Oct-20 14:38 34.074682 -117.915879 88 4946ft 115kts
06-Oct-20 14:39 34.075750 -117.876998 88 4946ft 116kts
06-Oct-20 14:40 34.076722 -117.838238 88 4945ft 116kts
06-Oct-20 14:41 34.077675 -117.799453 88 4946ft 115kts
06-Oct-20 14:42 34.066983 -117.765354 129 4944ft 114kts
06-Oct-20 14:43 34.043771 -117.740863 156 4936ft 115kts
06-Oct-20 14:44 34.021639 -117.717333 124 4942ft 115kts
06-Oct-20 14:45 34.003890 -117.685082 124 4939ft 115kts
06-Oct-20 14:46 33.986291 -117.653142 124 4938ft 115kts
06-Oct-20 14:47 33.968665 -117.621204 124 4939ft 115kts
06-Oct-20 14:48 33.950765 -117.589214 127 4486ft 115kts
06-Oct-20 14:49 33.931470 -117.558971 125 3958ft 107kts
06-Oct-20 14:50 33.936247 -117.530264 51 3955ft 101kts
06-Oct-20 14:51 33.959027 -117.513093 21 3983ft 100kts
06-Oct-20 14:52 33.985184 -117.501763 21 4004ft 100kts
06-Oct-20 14:53 34.011171 -117.489764 20 4023ft 100kts
06-Oct-20 14:54 34.031385 -117.470103 82 4033ft 102kts
06-Oct-20 14:55 34.035889 -117.436734 69 4045ft 102kts
06-Oct-20 14:56 34.045829 -117.403449 70 3799ft 108kts
06-Oct-20 14:57 34.055482 -117.368756 71 3370ft 113kts
06-Oct-20 14:58 34.066349 -117.333281 68 2759ft 110kts
06-Oct-20 14:59 34.076243 -117.301547 68 2128ft 80kts
06-Oct-20 15:00 34.082747 -117.276652 71 1765ft 80kts
06-Oct-20 15:01 34.090246 -117.252133 69 1157ft 76kts
06-Oct-20 15:02 34.094738 -117.240687 33 1109ft 0kts

Navigation Log

Ident Type
Flight plan parsing failed, navigation log unavailable